createdAt,value
2023-05-11T00:00:11.213Z,13.90
2023-05-11T00:02:40.325Z,13.80
2023-05-11T00:05:11.414Z,13.70
2023-05-11T00:07:40.187Z,13.70
2023-05-11T00:10:10.608Z,13.70
2023-05-11T00:12:39.362Z,13.60
2023-05-11T00:15:09.637Z,13.40
2023-05-11T00:17:38.377Z,13.30
2023-05-11T00:20:08.974Z,13.30
2023-05-11T00:22:39.309Z,13.20
2023-05-11T00:25:09.118Z,13.30
2023-05-11T00:27:37.778Z,13.30
2023-05-11T00:30:08.422Z,13.30
2023-05-11T00:32:37.120Z,13.20
2023-05-11T00:35:06.940Z,13.00
2023-05-11T00:37:35.674Z,13.00
2023-05-11T00:40:07.069Z,13.10
2023-05-11T00:42:36.216Z,13.10
2023-05-11T00:45:06.150Z,13.10
2023-05-11T00:47:34.975Z,13.10
2023-05-11T00:50:03.928Z,13.00
2023-05-11T00:52:32.712Z,13.00
2023-05-11T00:55:01.674Z,13.10
2023-05-11T00:57:33.401Z,13.10
2023-05-11T01:00:04.412Z,13.20
2023-05-11T01:02:33.518Z,13.10
2023-05-11T01:05:02.763Z,13.10
2023-05-11T01:07:39.777Z,13.00
2023-05-11T01:10:20.926Z,12.90
2023-05-11T01:13:03.901Z,13.00
2023-05-11T01:15:42.380Z,13.00
2023-05-11T01:18:25.315Z,13.00
2023-05-11T01:20:59.738Z,12.90
2023-05-11T01:24:16.716Z,12.80
2023-05-11T01:27:08.118Z,12.80
2023-05-11T01:30:14.787Z,12.70
2023-05-11T01:32:47.520Z,12.70
2023-05-11T01:35:22.208Z,12.60
2023-05-11T01:37:55.986Z,12.70
2023-05-11T01:40:29.986Z,12.70
2023-05-11T01:43:05.495Z,12.70
2023-05-11T01:45:40.503Z,12.70
2023-05-11T01:48:18.513Z,12.60
2023-05-11T01:50:51.077Z,12.70
2023-05-11T01:53:22.768Z,12.80
2023-05-11T01:55:53.929Z,12.60
2023-05-11T01:58:25.870Z,12.80
2023-05-11T02:00:55.779Z,12.80
2023-05-11T02:03:29.678Z,12.70
2023-05-11T02:06:02.010Z,12.70
2023-05-11T02:08:33.804Z,12.60
2023-05-11T02:11:05.324Z,12.70
2023-05-11T02:13:37.613Z,12.70
2023-05-11T02:16:10.315Z,12.70
2023-05-11T02:18:43.669Z,12.70
2023-05-11T02:21:16.764Z,12.70
2023-05-11T02:23:49.800Z,12.70
2023-05-11T02:26:18.876Z,12.60
2023-05-11T02:28:47.728Z,12.50
2023-05-11T02:31:26.365Z,12.50
2023-05-11T02:34:04.518Z,12.50
2023-05-11T02:36:38.849Z,12.50
2023-05-11T02:39:13.759Z,12.30
2023-05-11T02:41:47.716Z,12.30
2023-05-11T02:44:21.328Z,12.30
2023-05-11T02:46:52.777Z,12.30
2023-05-11T02:49:26.673Z,12.20
2023-05-11T02:51:58.818Z,12.20
2023-05-11T02:54:30.268Z,12.20
2023-05-11T02:56:59.868Z,12.20
2023-05-11T02:59:29.700Z,12.20
2023-05-11T03:02:00.110Z,12.20
2023-05-11T03:04:30.718Z,12.10
2023-05-11T03:06:59.447Z,12.00
2023-05-11T03:09:28.262Z,11.90
2023-05-11T03:11:57.871Z,12.00
2023-05-11T03:14:27.896Z,12.00
2023-05-11T03:17:00.524Z,12.00
2023-05-11T03:19:32.236Z,12.10
2023-05-11T03:22:02.237Z,12.00
2023-05-11T03:24:32.589Z,12.10
2023-05-11T03:27:03.882Z,12.10
2023-05-11T03:29:38.488Z,12.10
2023-05-11T03:32:07.687Z,12.20
2023-05-11T03:34:40.976Z,12.10
2023-05-11T03:37:14.629Z,12.10
2023-05-11T03:39:49.157Z,12.10
2023-05-11T03:42:20.914Z,12.10
2023-05-11T03:44:55.956Z,12.10
2023-05-11T03:47:27.096Z,12.10
2023-05-11T03:50:00.064Z,12.00
2023-05-11T03:52:29.613Z,12.10
2023-05-11T03:54:58.661Z,12.10
2023-05-11T03:57:28.357Z,12.20
2023-05-11T03:59:57.666Z,12.20
2023-05-11T04:02:30.410Z,12.20
2023-05-11T04:05:01.705Z,12.20
2023-05-11T04:07:32.869Z,12.20
2023-05-11T04:10:01.744Z,12.20
2023-05-11T04:12:30.571Z,12.20
2023-05-11T04:14:59.406Z,12.30
2023-05-11T04:17:28.546Z,12.30
2023-05-11T04:19:57.475Z,12.30
2023-05-11T04:22:27.760Z,12.30
2023-05-11T04:24:56.644Z,12.30
2023-05-11T04:27:25.470Z,12.30
2023-05-11T04:29:54.210Z,12.20
2023-05-11T04:32:23.626Z,12.30
2023-05-11T04:34:52.733Z,12.30
2023-05-11T04:37:24.518Z,12.40
2023-05-11T04:39:55.835Z,12.30
2023-05-11T04:42:24.788Z,12.40
2023-05-11T04:44:56.680Z,12.30
2023-05-11T04:47:25.464Z,12.40
2023-05-11T04:49:54.287Z,12.40
2023-05-11T04:52:22.998Z,12.40
2023-05-11T04:54:53.110Z,12.40
2023-05-11T04:57:23.286Z,12.50
2023-05-11T04:59:52.095Z,12.50
2023-05-11T05:02:20.826Z,12.50
2023-05-11T05:04:49.547Z,12.40
2023-05-11T05:07:18.290Z,12.50
2023-05-11T05:09:47.431Z,12.50
2023-05-11T05:12:17.228Z,12.60
2023-05-11T05:14:47.493Z,12.60
2023-05-11T05:17:16.346Z,12.70
2023-05-11T05:19:45.111Z,12.70
2023-05-11T05:22:13.909Z,12.70
2023-05-11T05:24:43.190Z,12.80
2023-05-11T05:27:11.857Z,12.80
2023-05-11T05:29:40.968Z,12.80
2023-05-11T05:32:12.344Z,12.80
2023-05-11T05:34:41.377Z,12.90
2023-05-11T05:37:10.237Z,13.00
2023-05-11T05:39:38.899Z,13.00
2023-05-11T05:42:08.360Z,13.00
2023-05-11T05:44:37.502Z,13.10
2023-05-11T05:47:07.301Z,13.10
2023-05-11T05:49:39.498Z,13.10
2023-05-11T05:52:10.852Z,13.10
2023-05-11T05:54:40.664Z,13.20
2023-05-11T05:57:09.436Z,13.20
2023-05-11T05:59:38.732Z,13.30
2023-05-11T06:02:07.783Z,13.30
2023-05-11T06:04:38.166Z,13.40
2023-05-11T06:07:06.905Z,13.40
2023-05-11T06:09:39.043Z,13.50
2023-05-11T06:12:09.368Z,13.50
2023-05-11T06:14:41.901Z,13.60
2023-05-11T06:17:10.968Z,13.60
2023-05-11T06:19:41.384Z,13.70
2023-05-11T06:22:11.281Z,13.80
2023-05-11T06:24:40.284Z,13.80
2023-05-11T06:27:09.139Z,13.90
2023-05-11T06:29:38.264Z,13.90
2023-05-11T06:32:07.980Z,14.00
2023-05-11T06:34:39.385Z,14.00
2023-05-11T06:37:09.639Z,14.10
2023-05-11T06:39:38.704Z,14.20
2023-05-11T06:42:10.318Z,14.20
2023-05-11T06:44:39.829Z,14.30
2023-05-11T06:47:09.164Z,14.30
2023-05-11T06:49:37.822Z,14.40
2023-05-11T06:52:08.972Z,14.40
2023-05-11T06:54:38.207Z,14.40
2023-05-11T06:57:06.981Z,14.50
2023-05-11T06:59:35.651Z,14.60
2023-05-11T07:02:04.337Z,14.60
2023-05-11T07:04:33.076Z,14.60
2023-05-11T07:07:01.897Z,14.70
2023-05-11T07:09:32.041Z,14.70
2023-05-11T07:12:00.806Z,14.80
2023-05-11T07:14:29.604Z,14.80
2023-05-11T07:16:58.274Z,14.90
2023-05-11T07:19:27.249Z,15.00
2023-05-11T07:21:56.292Z,15.10
2023-05-11T07:24:24.989Z,15.10
2023-05-11T07:26:55.859Z,15.10
2023-05-11T07:29:24.515Z,15.20
2023-05-11T07:31:53.298Z,15.30
2023-05-11T07:34:22.044Z,15.40
2023-05-11T07:36:50.890Z,15.50
2023-05-11T07:39:19.586Z,15.60
2023-05-11T07:41:48.315Z,15.60
2023-05-11T07:44:18.996Z,15.70
2023-05-11T07:46:47.730Z,15.70
2023-05-11T07:49:22.673Z,15.80
2023-05-11T07:51:56.884Z,15.90
2023-05-11T07:54:26.260Z,15.90
2023-05-11T07:56:55.034Z,16.10
2023-05-11T07:59:28.504Z,16.00
2023-05-11T08:01:57.313Z,16.20
2023-05-11T08:04:28.134Z,16.20
2023-05-11T08:06:56.972Z,16.40
2023-05-11T08:09:25.789Z,16.40
2023-05-11T08:11:56.591Z,16.60
2023-05-11T08:14:27.068Z,16.60
2023-05-11T08:16:55.873Z,16.60
2023-05-11T08:19:24.500Z,16.60
2023-05-11T08:21:53.628Z,16.70
2023-05-11T08:24:22.339Z,17.00
2023-05-11T08:26:50.986Z,16.90
2023-05-11T08:29:19.714Z,17.00
2023-05-11T08:31:51.593Z,17.10
2023-05-11T08:34:20.543Z,17.20
2023-05-11T08:36:49.535Z,17.30
2023-05-11T08:39:32.868Z,17.20
2023-05-11T08:42:08.583Z,17.40
2023-05-11T08:44:39.844Z,17.40
2023-05-11T08:47:22.790Z,17.60
2023-05-11T08:49:53.610Z,17.70
2023-05-11T08:52:22.597Z,17.70
2023-05-11T08:54:51.361Z,17.70
2023-05-11T08:57:20.680Z,17.60
2023-05-11T08:59:52.039Z,18.00
2023-05-11T09:02:22.176Z,18.10
2023-05-11T09:04:52.989Z,18.10
2023-05-11T09:07:23.018Z,18.20
2023-05-11T09:09:51.764Z,18.20
2023-05-11T09:12:21.629Z,18.20
2023-05-11T09:14:50.534Z,18.10
2023-05-11T09:17:19.306Z,18.20
2023-05-11T09:20:05.971Z,18.40
2023-05-11T09:22:36.556Z,18.50
2023-05-11T09:25:06.811Z,18.60
2023-05-11T09:27:41.891Z,18.70
2023-05-11T09:30:21.998Z,18.90
2023-05-11T09:32:53.572Z,19.10
2023-05-11T09:35:26.512Z,19.40
2023-05-11T09:38:07.870Z,19.30
2023-05-11T09:40:39.881Z,19.40
2023-05-11T09:43:19.030Z,19.60
2023-05-11T09:45:49.882Z,19.70
2023-05-11T09:48:32.919Z,19.70
2023-05-11T09:51:06.496Z,20.00
2023-05-11T09:53:43.306Z,19.80
2023-05-11T09:56:13.931Z,19.60
2023-05-11T09:58:53.267Z,19.80
2023-05-11T10:01:32.513Z,20.10
2023-05-11T10:04:21.117Z,20.40
2023-05-11T10:06:54.928Z,20.60
2023-05-11T10:09:26.215Z,20.30
2023-05-11T10:11:56.637Z,20.30
2023-05-11T10:14:29.445Z,20.60
2023-05-11T10:17:03.051Z,20.60
2023-05-11T10:19:32.970Z,20.90
2023-05-11T10:22:06.181Z,21.10
2023-05-11T10:24:35.500Z,21.10
2023-05-11T10:27:05.080Z,21.10
2023-05-11T10:29:35.232Z,21.20
2023-05-11T10:32:05.938Z,21.10
2023-05-11T10:35:25.969Z,21.20
2023-05-11T10:38:05.940Z,21.50
2023-05-11T10:40:42.340Z,21.70
2023-05-11T10:43:47.622Z,21.50
2023-05-11T10:46:42.815Z,21.10
2023-05-11T10:49:38.627Z,20.90
2023-05-11T10:52:30.158Z,21.40
2023-05-11T10:55:14.667Z,21.30
2023-05-11T10:58:10.494Z,20.80
2023-05-11T11:01:37.866Z,20.50
2023-05-11T11:04:10.059Z,20.40
2023-05-11T11:06:41.735Z,20.30
2023-05-11T11:09:15.901Z,20.60
2023-05-11T11:11:50.289Z,21.10
2023-05-11T11:14:20.091Z,20.90
2023-05-11T11:17:27.384Z,20.80
2023-05-11T11:19:57.439Z,21.00
2023-05-11T11:22:47.618Z,20.60
2023-05-11T11:25:53.830Z,20.60
2023-05-11T11:28:24.795Z,21.20
2023-05-11T11:31:28.980Z,21.60
2023-05-11T11:34:01.101Z,21.50
2023-05-11T11:37:08.729Z,21.40
2023-05-11T11:40:09.522Z,21.80
2023-05-11T11:42:44.777Z,21.70
2023-05-11T11:45:40.028Z,21.90
2023-05-11T11:48:18.095Z,22.00
2023-05-11T11:50:49.197Z,22.10
2023-05-11T11:54:07.191Z,22.30
2023-05-11T11:56:46.990Z,22.40
2023-05-11T11:59:17.013Z,22.30
2023-05-11T12:01:54.737Z,22.60
2023-05-11T12:04:57.181Z,22.80
2023-05-11T12:07:28.625Z,22.90
2023-05-11T12:09:57.850Z,23.10
2023-05-11T12:12:28.384Z,23.20
2023-05-11T12:14:57.928Z,23.00
2023-05-11T12:17:30.956Z,23.20
2023-05-11T12:20:15.121Z,23.30
2023-05-11T12:22:44.776Z,22.70
2023-05-11T12:25:15.988Z,22.60
2023-05-11T12:27:55.437Z,22.40
2023-05-11T12:30:26.580Z,22.90
2023-05-11T12:32:57.882Z,22.90
2023-05-11T12:35:29.459Z,23.00
2023-05-11T12:38:00.960Z,23.10
2023-05-11T12:40:30.050Z,23.10
2023-05-11T12:43:01.685Z,22.90
2023-05-11T12:45:30.928Z,22.70
2023-05-11T12:48:02.133Z,22.70
2023-05-11T12:50:31.283Z,22.60
2023-05-11T12:53:15.866Z,22.40
2023-05-11T12:55:45.619Z,22.20
2023-05-11T12:58:18.652Z,22.40
2023-05-11T13:00:55.196Z,22.40
2023-05-11T13:03:27.526Z,22.10
2023-05-11T13:06:08.087Z,21.70
2023-05-11T13:08:38.885Z,21.70
2023-05-11T13:11:22.503Z,21.30
2023-05-11T13:13:51.911Z,21.40
2023-05-11T13:16:30.502Z,21.50
2023-05-11T13:19:08.313Z,21.70
2023-05-11T13:21:38.520Z,21.70
2023-05-11T13:24:09.470Z,21.60
2023-05-11T13:26:38.376Z,21.50
2023-05-11T13:29:11.173Z,21.60
2023-05-11T13:31:47.165Z,21.50
2023-05-11T13:34:18.636Z,21.70
2023-05-11T13:36:47.991Z,21.80
2023-05-11T13:39:16.856Z,21.90
2023-05-11T13:41:46.238Z,21.50
2023-05-11T13:44:14.963Z,21.30
2023-05-11T13:46:43.604Z,21.50
2023-05-11T13:49:12.465Z,21.60
2023-05-11T13:51:42.833Z,21.60
2023-05-11T13:54:13.551Z,21.60
2023-05-11T13:56:42.331Z,21.50
2023-05-11T13:59:11.211Z,21.60
2023-05-11T14:01:39.970Z,21.40
2023-05-11T14:04:08.665Z,21.30
2023-05-11T14:06:38.170Z,21.50
2023-05-11T14:09:08.344Z,21.70
2023-05-11T14:11:39.313Z,21.70
2023-05-11T14:14:08.548Z,21.60
2023-05-11T14:16:37.946Z,21.60
2023-05-11T14:19:06.779Z,21.50
2023-05-11T14:21:35.827Z,21.70
2023-05-11T14:24:14.067Z,21.80
2023-05-11T14:26:44.380Z,21.80
2023-05-11T14:29:13.090Z,22.00
2023-05-11T14:31:42.789Z,21.90
2023-05-11T14:34:12.491Z,21.90
2023-05-11T14:36:42.073Z,21.80
2023-05-11T14:39:11.735Z,21.80
2023-05-11T14:41:41.344Z,21.80
2023-05-11T14:44:12.924Z,22.10
2023-05-11T14:46:41.876Z,22.10
2023-05-11T14:49:10.829Z,21.70
2023-05-11T14:51:40.044Z,21.70
2023-05-11T14:54:08.824Z,21.50
2023-05-11T14:56:37.449Z,21.60
2023-05-11T14:59:06.288Z,21.60
2023-05-11T15:01:36.413Z,21.70
2023-05-11T15:04:05.376Z,21.80
2023-05-11T15:06:34.229Z,22.00
2023-05-11T15:09:03.118Z,21.90
2023-05-11T15:11:31.807Z,21.90
2023-05-11T15:14:01.103Z,21.70
2023-05-11T15:16:29.961Z,21.40
2023-05-11T15:19:00.654Z,21.50
2023-05-11T15:21:29.660Z,21.50
2023-05-11T15:23:58.365Z,21.50
2023-05-11T15:26:27.387Z,21.40
2023-05-11T15:28:56.167Z,21.40
2023-05-11T15:31:24.895Z,21.70
2023-05-11T15:33:53.781Z,21.90
2023-05-11T15:36:23.975Z,21.80
2023-05-11T15:38:52.894Z,21.70
2023-05-11T15:41:22.159Z,21.60
2023-05-11T15:43:50.846Z,21.80
2023-05-11T15:46:19.631Z,21.60
2023-05-11T15:48:48.502Z,21.40
2023-05-11T15:51:17.319Z,21.70
2023-05-11T15:53:47.415Z,21.90
2023-05-11T15:56:16.060Z,21.90
2023-05-11T15:58:44.730Z,21.50
2023-05-11T16:01:13.459Z,21.50
2023-05-11T16:03:42.346Z,21.30
2023-05-11T16:06:11.342Z,21.20
2023-05-11T16:08:40.249Z,21.20
2023-05-11T16:11:10.357Z,21.50
2023-05-11T16:13:39.663Z,21.60
2023-05-11T16:16:09.104Z,21.40
2023-05-11T16:18:39.235Z,21.30
2023-05-11T16:21:08.474Z,21.40
2023-05-11T16:23:37.393Z,21.10
2023-05-11T16:26:06.220Z,21.00
2023-05-11T16:28:36.856Z,21.00
2023-05-11T16:31:05.863Z,20.80
2023-05-11T16:33:34.963Z,20.90
2023-05-11T16:36:04.087Z,20.90
2023-05-11T16:38:33.150Z,20.90
2023-05-11T16:41:02.314Z,20.90
2023-05-11T16:43:32.492Z,21.00
2023-05-11T16:46:03.684Z,20.70
2023-05-11T16:48:33.027Z,20.80
2023-05-11T16:51:05.609Z,20.80
2023-05-11T16:53:34.512Z,21.00
2023-05-11T16:56:07.680Z,20.90
2023-05-11T16:58:40.843Z,20.90
2023-05-11T17:01:12.973Z,20.80
2023-05-11T17:03:44.269Z,20.80
2023-05-11T17:06:14.741Z,21.00
2023-05-11T17:08:43.485Z,20.90
2023-05-11T17:11:12.578Z,20.90
2023-05-11T17:13:41.348Z,20.80
2023-05-11T17:16:11.681Z,20.70
2023-05-11T17:18:41.484Z,20.70
2023-05-11T17:21:11.158Z,20.60
2023-05-11T17:23:41.026Z,20.60
2023-05-11T17:26:11.527Z,20.40
2023-05-11T17:28:40.708Z,20.50
2023-05-11T17:31:13.249Z,20.50
2023-05-11T17:33:43.446Z,20.40
2023-05-11T17:36:12.960Z,20.40
2023-05-11T17:38:42.781Z,20.40
2023-05-11T17:41:11.531Z,20.40
2023-05-11T17:43:41.377Z,20.40
2023-05-11T17:46:13.640Z,20.40
2023-05-11T17:48:42.781Z,20.20
2023-05-11T17:51:12.545Z,20.10
2023-05-11T17:53:42.009Z,20.10
2023-05-11T17:56:11.952Z,20.10
2023-05-11T17:58:43.149Z,20.10
2023-05-11T18:01:14.637Z,20.10
2023-05-11T18:03:43.878Z,20.10
2023-05-11T18:06:13.085Z,20.10
2023-05-11T18:08:41.925Z,20.10
2023-05-11T18:11:11.309Z,20.10
2023-05-11T18:13:40.288Z,20.10
2023-05-11T18:16:10.187Z,20.10
2023-05-11T18:18:42.378Z,20.00
2023-05-11T18:21:11.735Z,19.90
2023-05-11T18:23:40.468Z,19.90
2023-05-11T18:26:09.233Z,19.90
2023-05-11T18:28:38.179Z,19.90
2023-05-11T18:31:06.879Z,19.80
2023-05-11T18:33:35.526Z,19.80
2023-05-11T18:36:06.666Z,19.80
2023-05-11T18:38:35.581Z,19.70
2023-05-11T18:41:06.374Z,19.70
2023-05-11T18:43:35.298Z,19.60
2023-05-11T18:46:09.297Z,19.60
2023-05-11T18:48:39.092Z,19.60
2023-05-11T18:51:09.341Z,19.50
2023-05-11T18:53:38.103Z,19.40
2023-05-11T18:56:07.115Z,19.40
2023-05-11T18:58:36.124Z,19.50
2023-05-11T19:01:05.450Z,19.40
2023-05-11T19:03:34.548Z,19.20
2023-05-11T19:06:03.541Z,19.30
2023-05-11T19:08:33.513Z,19.20
2023-05-11T19:11:08.051Z,19.20
2023-05-11T19:13:38.437Z,19.20
2023-05-11T19:16:07.678Z,19.20
2023-05-11T19:18:37.183Z,19.10
2023-05-11T19:21:06.046Z,19.00
2023-05-11T19:23:36.341Z,18.80
2023-05-11T19:26:05.156Z,18.90
2023-05-11T19:28:34.055Z,18.90
2023-05-11T19:31:17.119Z,18.80
2023-05-11T19:33:45.932Z,18.70
2023-05-11T19:36:14.741Z,18.50
2023-05-11T19:38:44.840Z,18.50
2023-05-11T19:41:13.596Z,18.60
2023-05-11T19:43:42.371Z,18.50
2023-05-11T19:46:11.202Z,18.50
2023-05-11T19:48:40.153Z,18.30
2023-05-11T19:51:08.878Z,18.40
2023-05-11T19:53:37.718Z,18.40
2023-05-11T19:56:08.684Z,18.40
2023-05-11T19:58:37.407Z,18.20
2023-05-11T20:01:06.467Z,18.30
2023-05-11T20:03:35.397Z,18.30
2023-05-11T20:06:04.304Z,18.30
2023-05-11T20:08:33.045Z,18.20
2023-05-11T20:11:02.372Z,18.20
2023-05-11T20:13:32.607Z,18.20
2023-05-11T20:16:01.525Z,18.20
2023-05-11T20:18:30.637Z,18.00
2023-05-11T20:20:59.389Z,18.00
2023-05-11T20:23:28.492Z,17.80
2023-05-11T20:25:57.245Z,17.70
2023-05-11T20:28:27.353Z,17.80
2023-05-11T20:30:58.046Z,17.80
2023-05-11T20:35:59.088Z,17.70
2023-05-11T20:38:27.864Z,17.80
2023-05-11T20:40:59.009Z,17.70
2023-05-11T20:43:28.008Z,17.70
2023-05-11T20:46:03.661Z,17.60
2023-05-11T20:48:40.567Z,17.60
2023-05-11T20:51:10.203Z,17.60
2023-05-11T20:53:39.118Z,17.50
2023-05-11T20:56:10.150Z,17.50
2023-05-11T20:58:39.280Z,17.40
2023-05-11T21:01:09.628Z,17.40
2023-05-11T21:03:38.427Z,17.40
2023-05-11T21:06:08.779Z,17.30
2023-05-11T21:08:57.400Z,17.10
2023-05-11T21:11:26.248Z,17.00
2023-05-11T21:14:08.229Z,17.10
2023-05-11T21:16:38.571Z,17.10
2023-05-11T21:19:08.177Z,17.00
2023-05-11T21:21:36.950Z,16.80
2023-05-11T21:24:06.308Z,16.90
2023-05-11T21:26:35.152Z,16.70
2023-05-11T21:29:03.913Z,16.80
2023-05-11T21:31:32.745Z,16.80
2023-05-11T21:34:02.960Z,16.70
2023-05-11T21:36:31.720Z,16.70
2023-05-11T21:39:00.418Z,16.80
2023-05-11T21:41:29.294Z,16.70
2023-05-11T21:43:58.052Z,16.60
2023-05-11T21:46:26.961Z,16.70
2023-05-11T21:48:55.736Z,16.70
2023-05-11T21:51:25.901Z,16.70
2023-05-11T21:53:54.671Z,16.70
2023-05-11T21:56:23.470Z,16.60
2023-05-11T21:58:54.230Z,16.60
2023-05-11T22:01:23.024Z,16.60
2023-05-11T22:03:51.859Z,16.50
2023-05-11T22:06:20.530Z,16.50
2023-05-11T22:08:50.772Z,16.50
2023-05-11T22:11:21.649Z,16.40
2023-05-11T22:13:51.171Z,16.30
2023-05-11T22:16:20.272Z,16.30
2023-05-11T22:18:49.089Z,16.10
2023-05-11T22:21:17.806Z,16.30
2023-05-11T22:23:46.550Z,16.30
2023-05-11T22:26:16.730Z,16.10
2023-05-11T22:28:45.582Z,16.10
2023-05-11T22:31:14.290Z,16.10
2023-05-11T22:33:43.038Z,16.10
2023-05-11T22:36:13.150Z,16.10
2023-05-11T22:38:42.071Z,16.20
2023-05-11T22:41:10.900Z,16.00
2023-05-11T22:43:41.038Z,15.90
2023-05-11T22:46:10.271Z,16.00
2023-05-11T22:48:39.053Z,16.00
2023-05-11T22:51:07.776Z,15.90
2023-05-11T22:53:36.510Z,15.90
2023-05-11T22:56:06.426Z,15.90
2023-05-11T22:58:35.399Z,15.90
2023-05-11T23:01:05.831Z,15.90
2023-05-11T23:03:34.690Z,15.90
2023-05-11T23:06:03.384Z,15.80
2023-05-11T23:08:32.376Z,15.80
2023-05-11T23:11:01.204Z,15.80
2023-05-11T23:13:29.984Z,15.90
2023-05-11T23:15:59.769Z,15.80
2023-05-11T23:18:30.054Z,15.70
2023-05-11T23:20:59.335Z,15.50
2023-05-11T23:23:28.844Z,15.60
2023-05-11T23:25:57.531Z,15.60
2023-05-11T23:28:26.360Z,15.50
2023-05-11T23:30:55.072Z,15.40
2023-05-11T23:33:23.885Z,15.50
2023-05-11T23:35:54.845Z,15.50
2023-05-11T23:38:23.585Z,15.50
2023-05-11T23:40:52.526Z,15.50
2023-05-11T23:43:22.125Z,15.40
2023-05-11T23:45:52.230Z,15.40
2023-05-11T23:48:23.089Z,15.30
2023-05-11T23:50:53.297Z,15.30
2023-05-11T23:53:22.014Z,15.30
2023-05-11T23:55:50.918Z,15.30
2023-05-11T23:58:19.642Z,15.40
